sensor_id;sensor_type;location;lat;lon;timestamp;temperature;humidity
17891;DHT22;9071;48.220;14.480;2022-07-18T00:00:08;14.50;99.90
17891;DHT22;9071;48.220;14.480;2022-07-18T00:05:12;14.40;99.90
17891;DHT22;9071;48.220;14.480;2022-07-18T00:10:14;14.30;99.90
17891;DHT22;9071;48.220;14.480;2022-07-18T00:15:16;14.20;99.90
17891;DHT22;9071;48.220;14.480;2022-07-18T00:20:19;14.10;99.90
17891;DHT22;9071;48.220;14.480;2022-07-18T00:25:22;14.00;99.90
17891;DHT22;9071;48.220;14.480;2022-07-18T00:30:24;14.00;99.90
17891;DHT22;9071;48.220;14.480;2022-07-18T00:35:27;13.90;99.90
17891;DHT22;9071;48.220;14.480;2022-07-18T00:40:29;13.90;99.90
17891;DHT22;9071;48.220;14.480;2022-07-18T00:45:32;13.80;99.90
17891;DHT22;9071;48.220;14.480;2022-07-18T00:50:35;13.80;99.90
17891;DHT22;9071;48.220;14.480;2022-07-18T00:55:37;13.90;99.90
17891;DHT22;9071;48.220;14.480;2022-07-18T01:00:40;13.80;99.90
17891;DHT22;9071;48.220;14.480;2022-07-18T01:06:01;13.70;99.90
17891;DHT22;9071;48.220;14.480;2022-07-18T01:11:04;13.60;99.90
17891;DHT22;9071;48.220;14.480;2022-07-18T01:16:06;13.50;99.90
17891;DHT22;9071;48.220;14.480;2022-07-18T01:21:10;13.40;99.90
17891;DHT22;9071;48.220;14.480;2022-07-18T01:26:13;13.30;99.90
17891;DHT22;9071;48.220;14.480;2022-07-18T01:31:15;13.30;99.90
17891;DHT22;9071;48.220;14.480;2022-07-18T01:36:19;13.30;99.90
17891;DHT22;9071;48.220;14.480;2022-07-18T01:41:21;13.10;99.90
17891;DHT22;9071;48.220;14.480;2022-07-18T01:46:23;13.10;99.90
17891;DHT22;9071;48.220;14.480;2022-07-18T01:51:26;13.00;99.90
17891;DHT22;9071;48.220;14.480;2022-07-18T01:56:29;12.90;99.90
17891;DHT22;9071;48.220;14.480;2022-07-18T02:01:31;12.90;99.90
17891;DHT22;9071;48.220;14.480;2022-07-18T02:06:34;12.80;99.90
17891;DHT22;9071;48.220;14.480;2022-07-18T02:11:37;12.90;99.90
17891;DHT22;9071;48.220;14.480;2022-07-18T02:16:39;12.90;99.90
17891;DHT22;9071;48.220;14.480;2022-07-18T02:21:42;12.90;99.90
17891;DHT22;9071;48.220;14.480;2022-07-18T02:26:44;12.80;99.90
17891;DHT22;9071;48.220;14.480;2022-07-18T02:31:46;12.70;99.90
17891;DHT22;9071;48.220;14.480;2022-07-18T02:36:50;12.80;99.90
17891;DHT22;9071;48.220;14.480;2022-07-18T02:41:52;12.60;99.90
17891;DHT22;9071;48.220;14.480;2022-07-18T02:46:55;12.50;99.90
17891;DHT22;9071;48.220;14.480;2022-07-18T02:52:00;12.50;99.90
17891;DHT22;9071;48.220;14.480;2022-07-18T02:57:03;12.50;99.90
17891;DHT22;9071;48.220;14.480;2022-07-18T03:02:05;12.50;99.90
17891;DHT22;9071;48.220;14.480;2022-07-18T03:07:10;12.40;99.90
17891;DHT22;9071;48.220;14.480;2022-07-18T03:12:12;12.40;99.90
17891;DHT22;9071;48.220;14.480;2022-07-18T03:17:14;12.30;99.90
17891;DHT22;9071;48.220;14.480;2022-07-18T03:22:17;12.20;99.90
17891;DHT22;9071;48.220;14.480;2022-07-18T03:27:19;12.20;99.90
17891;DHT22;9071;48.220;14.480;2022-07-18T03:32:21;12.20;99.90
17891;DHT22;9071;48.220;14.480;2022-07-18T03:37:29;12.20;99.90
17891;DHT22;9071;48.220;14.480;2022-07-18T03:42:32;12.20;99.90
17891;DHT22;9071;48.220;14.480;2022-07-18T03:47:35;12.20;99.90
17891;DHT22;9071;48.220;14.480;2022-07-18T03:52:39;12.30;99.90
17891;DHT22;9071;48.220;14.480;2022-07-18T03:57:44;12.40;99.90
17891;DHT22;9071;48.220;14.480;2022-07-18T04:02:48;12.60;99.90
17891;DHT22;9071;48.220;14.480;2022-07-18T04:07:51;12.80;99.90
17891;DHT22;9071;48.220;14.480;2022-07-18T04:12:54;13.00;99.90
17891;DHT22;9071;48.220;14.480;2022-07-18T04:17:57;13.10;99.90
17891;DHT22;9071;48.220;14.480;2022-07-18T04:23:02;13.20;99.90
17891;DHT22;9071;48.220;14.480;2022-07-18T04:28:06;13.30;99.90
17891;DHT22;9071;48.220;14.480;2022-07-18T04:33:09;13.40;99.90
17891;DHT22;9071;48.220;14.480;2022-07-18T04:38:13;13.60;99.90
17891;DHT22;9071;48.220;14.480;2022-07-18T04:43:16;13.70;99.90
17891;DHT22;9071;48.220;14.480;2022-07-18T04:48:18;13.80;99.90
17891;DHT22;9071;48.220;14.480;2022-07-18T04:53:21;13.90;99.90
17891;DHT22;9071;48.220;14.480;2022-07-18T04:58:23;14.10;99.90
17891;DHT22;9071;48.220;14.480;2022-07-18T05:03:25;14.20;99.90
17891;DHT22;9071;48.220;14.480;2022-07-18T05:08:29;14.40;99.90
17891;DHT22;9071;48.220;14.480;2022-07-18T05:13:31;14.70;99.90
17891;DHT22;9071;48.220;14.480;2022-07-18T05:18:33;14.90;99.90
17891;DHT22;9071;48.220;14.480;2022-07-18T05:23:36;15.10;99.90
17891;DHT22;9071;48.220;14.480;2022-07-18T05:28:38;15.50;99.90
17891;DHT22;9071;48.220;14.480;2022-07-18T05:33:41;17.90;99.90
17891;DHT22;9071;48.220;14.480;2022-07-18T05:38:44;20.40;99.90
17891;DHT22;9071;48.220;14.480;2022-07-18T05:43:46;23.30;99.90
17891;DHT22;9071;48.220;14.480;2022-07-18T05:48:48;24.80;99.90
17891;DHT22;9071;48.220;14.480;2022-07-18T05:53:51;25.60;99.90
17891;DHT22;9071;48.220;14.480;2022-07-18T05:58:53;26.70;99.90
17891;DHT22;9071;48.220;14.480;2022-07-18T06:03:55;27.30;99.90
17891;DHT22;9071;48.220;14.480;2022-07-18T06:08:59;27.90;99.90
17891;DHT22;9071;48.220;14.480;2022-07-18T06:14:01;28.10;99.90
17891;DHT22;9071;48.220;14.480;2022-07-18T06:19:04;28.20;99.90
17891;DHT22;9071;48.220;14.480;2022-07-18T06:24:08;28.00;99.90
17891;DHT22;9071;48.220;14.480;2022-07-18T06:29:10;28.40;99.90
17891;DHT22;9071;48.220;14.480;2022-07-18T06:34:12;28.80;99.90
17891;DHT22;9071;48.220;14.480;2022-07-18T06:39:15;29.80;99.90
17891;DHT22;9071;48.220;14.480;2022-07-18T06:44:19;30.10;99.90
17891;DHT22;9071;48.220;14.480;2022-07-18T06:49:21;29.60;99.90
17891;DHT22;9071;48.220;14.480;2022-07-18T06:54:24;30.20;99.90
17891;DHT22;9071;48.220;14.480;2022-07-18T06:59:28;29.80;99.90
17891;DHT22;9071;48.220;14.480;2022-07-18T07:04:30;29.60;99.90
17891;DHT22;9071;48.220;14.480;2022-07-18T07:09:34;31.30;99.90
17891;DHT22;9071;48.220;14.480;2022-07-18T07:14:36;31.20;99.40
17891;DHT22;9071;48.220;14.480;2022-07-18T07:19:38;32.20;99.00
17891;DHT22;9071;48.220;14.480;2022-07-18T07:24:41;31.70;97.70
17891;DHT22;9071;48.220;14.480;2022-07-18T07:29:43;31.30;99.40
17891;DHT22;9071;48.220;14.480;2022-07-18T07:34:45;31.50;98.20
17891;DHT22;9071;48.220;14.480;2022-07-18T07:39:49;31.90;99.90
17891;DHT22;9071;48.220;14.480;2022-07-18T07:44:51;32.20;96.40
17891;DHT22;9071;48.220;14.480;2022-07-18T07:49:53;28.40;97.70
17891;DHT22;9071;48.220;14.480;2022-07-18T07:54:56;28.80;97.20
17891;DHT22;9071;48.220;14.480;2022-07-18T07:59:58;29.70;96.70
17891;DHT22;9071;48.220;14.480;2022-07-18T08:05:01;30.90;95.60
17891;DHT22;9071;48.220;14.480;2022-07-18T08:10:05;31.60;96.10
17891;DHT22;9071;48.220;14.480;2022-07-18T08:15:08;31.30;95.40
17891;DHT22;9071;48.220;14.480;2022-07-18T08:20:11;29.40;96.70
17891;DHT22;9071;48.220;14.480;2022-07-18T08:25:15;27.80;98.00
17891;DHT22;9071;48.220;14.480;2022-07-18T08:30:17;26.60;99.30
17891;DHT22;9071;48.220;14.480;2022-07-18T08:35:19;25.60;99.90
17891;DHT22;9071;48.220;14.480;2022-07-18T08:40:23;25.10;99.90
17891;DHT22;9071;48.220;14.480;2022-07-18T08:45:25;25.00;99.90
17891;DHT22;9071;48.220;14.480;2022-07-18T08:50:27;24.80;99.90
17891;DHT22;9071;48.220;14.480;2022-07-18T08:55:31;24.80;99.90
17891;DHT22;9071;48.220;14.480;2022-07-18T09:00:34;24.90;99.90
17891;DHT22;9071;48.220;14.480;2022-07-18T09:05:36;25.00;99.90
17891;DHT22;9071;48.220;14.480;2022-07-18T09:10:49;24.60;99.90
17891;DHT22;9071;48.220;14.480;2022-07-18T09:16:02;25.20;99.90
17891;DHT22;9071;48.220;14.480;2022-07-18T09:21:08;25.50;99.90
17891;DHT22;9071;48.220;14.480;2022-07-18T09:26:11;25.70;99.90
17891;DHT22;9071;48.220;14.480;2022-07-18T09:31:17;25.80;99.90
17891;DHT22;9071;48.220;14.480;2022-07-18T09:36:20;25.90;99.90
17891;DHT22;9071;48.220;14.480;2022-07-18T09:41:25;26.00;99.90
17891;DHT22;9071;48.220;14.480;2022-07-18T09:46:27;26.00;99.90
17891;DHT22;9071;48.220;14.480;2022-07-18T09:51:30;26.20;99.90
17891;DHT22;9071;48.220;14.480;2022-07-18T09:56:33;26.30;99.90
17891;DHT22;9071;48.220;14.480;2022-07-18T10:01:38;26.80;99.90
17891;DHT22;9071;48.220;14.480;2022-07-18T10:06:40;26.70;99.70
17891;DHT22;9071;48.220;14.480;2022-07-18T10:11:45;26.50;99.90
17891;DHT22;9071;48.220;14.480;2022-07-18T10:16:47;26.60;99.20
17891;DHT22;9071;48.220;14.480;2022-07-18T10:21:49;26.90;99.00
17891;DHT22;9071;48.220;14.480;2022-07-18T10:27:13;27.10;99.10
17891;DHT22;9071;48.220;14.480;2022-07-18T10:32:31;27.20;98.80
17891;DHT22;9071;48.220;14.480;2022-07-18T10:37:34;27.10;99.90
17891;DHT22;9071;48.220;14.480;2022-07-18T10:42:38;27.30;97.30
17891;DHT22;9071;48.220;14.480;2022-07-18T10:47:40;27.30;97.10
17891;DHT22;9071;48.220;14.480;2022-07-18T10:52:59;27.70;98.70
17891;DHT22;9071;48.220;14.480;2022-07-18T10:58:18;27.90;99.90
17891;DHT22;9071;48.220;14.480;2022-07-18T11:03:26;28.20;96.40
17891;DHT22;9071;48.220;14.480;2022-07-18T11:08:30;28.30;97.20
17891;DHT22;9071;48.220;14.480;2022-07-18T11:13:36;28.10;96.10
17891;DHT22;9071;48.220;14.480;2022-07-18T11:19:17;28.20;94.30
17891;DHT22;9071;48.220;14.480;2022-07-18T11:24:22;28.20;94.70
17891;DHT22;9071;48.220;14.480;2022-07-18T11:29:25;28.30;98.50
17891;DHT22;9071;48.220;14.480;2022-07-18T11:34:28;28.60;95.10
17891;DHT22;9071;48.220;14.480;2022-07-18T11:39:30;28.50;93.30
17891;DHT22;9071;48.220;14.480;2022-07-18T11:44:34;28.10;96.00
17891;DHT22;9071;48.220;14.480;2022-07-18T11:49:37;28.30;96.00
17891;DHT22;9071;48.220;14.480;2022-07-18T11:54:40;28.40;94.30
17891;DHT22;9071;48.220;14.480;2022-07-18T11:59:43;28.70;93.90
17891;DHT22;9071;48.220;14.480;2022-07-18T12:04:46;28.80;93.50
17891;DHT22;9071;48.220;14.480;2022-07-18T12:09:49;29.00;95.10
17891;DHT22;9071;48.220;14.480;2022-07-18T12:14:57;29.40;92.30
17891;DHT22;9071;48.220;14.480;2022-07-18T12:20:14;29.00;92.70
17891;DHT22;9071;48.220;14.480;2022-07-18T12:25:17;28.80;92.10
17891;DHT22;9071;48.220;14.480;2022-07-18T12:30:20;28.90;92.50
17891;DHT22;9071;48.220;14.480;2022-07-18T12:35:23;29.00;91.30
17891;DHT22;9071;48.220;14.480;2022-07-18T12:40:27;29.20;94.30
17891;DHT22;9071;48.220;14.480;2022-07-18T12:45:42;29.20;91.90
17891;DHT22;9071;48.220;14.480;2022-07-18T12:50:44;29.40;90.70
17891;DHT22;9071;48.220;14.480;2022-07-18T12:55:47;29.10;90.70
17891;DHT22;9071;48.220;14.480;2022-07-18T13:00:50;29.10;91.20
17891;DHT22;9071;48.220;14.480;2022-07-18T13:05:53;29.40;90.30
17891;DHT22;9071;48.220;14.480;2022-07-18T13:10:55;29.30;88.60
17891;DHT22;9071;48.220;14.480;2022-07-18T13:15:59;29.50;90.80
17891;DHT22;9071;48.220;14.480;2022-07-18T13:21:01;29.80;90.80
17891;DHT22;9071;48.220;14.480;2022-07-18T13:26:03;29.40;90.00
17891;DHT22;9071;48.220;14.480;2022-07-18T13:31:08;29.30;90.20
17891;DHT22;9071;48.220;14.480;2022-07-18T13:36:10;29.40;90.60
17891;DHT22;9071;48.220;14.480;2022-07-18T13:41:12;29.30;90.00
17891;DHT22;9071;48.220;14.480;2022-07-18T13:46:16;29.40;89.80
17891;DHT22;9071;48.220;14.480;2022-07-18T13:51:18;29.60;90.00
17891;DHT22;9071;48.220;14.480;2022-07-18T13:56:20;29.80;91.60
17891;DHT22;9071;48.220;14.480;2022-07-18T14:01:24;29.80;90.60
17891;DHT22;9071;48.220;14.480;2022-07-18T14:06:26;29.60;91.00
17891;DHT22;9071;48.220;14.480;2022-07-18T14:11:28;29.70;90.30
17891;DHT22;9071;48.220;14.480;2022-07-18T14:16:34;29.80;90.70
17891;DHT22;9071;48.220;14.480;2022-07-18T14:21:37;29.70;91.30
17891;DHT22;9071;48.220;14.480;2022-07-18T14:26:39;29.80;91.50
17891;DHT22;9071;48.220;14.480;2022-07-18T14:31:43;29.50;90.70
17891;DHT22;9071;48.220;14.480;2022-07-18T14:36:45;29.10;91.20
17891;DHT22;9071;48.220;14.480;2022-07-18T14:41:47;29.10;92.30
17891;DHT22;9071;48.220;14.480;2022-07-18T14:46:50;29.00;92.30
17891;DHT22;9071;48.220;14.480;2022-07-18T14:51:53;29.10;91.80
17891;DHT22;9071;48.220;14.480;2022-07-18T14:56:55;29.10;92.30
17891;DHT22;9071;48.220;14.480;2022-07-18T15:01:59;29.40;92.60
17891;DHT22;9071;48.220;14.480;2022-07-18T15:07:06;29.30;92.00
17891;DHT22;9071;48.220;14.480;2022-07-18T15:12:08;29.40;92.20
17891;DHT22;9071;48.220;14.480;2022-07-18T15:17:12;29.40;93.10
17891;DHT22;9071;48.220;14.480;2022-07-18T15:22:14;29.40;94.20
17891;DHT22;9071;48.220;14.480;2022-07-18T15:27:16;29.40;94.50
17891;DHT22;9071;48.220;14.480;2022-07-18T15:32:19;29.30;93.30
17891;DHT22;9071;48.220;14.480;2022-07-18T15:37:21;29.30;94.30
17891;DHT22;9071;48.220;14.480;2022-07-18T15:42:23;29.30;94.40
17891;DHT22;9071;48.220;14.480;2022-07-18T15:47:27;29.20;93.90
17891;DHT22;9071;48.220;14.480;2022-07-18T15:52:29;29.00;94.60
17891;DHT22;9071;48.220;14.480;2022-07-18T15:57:31;28.90;94.60
17891;DHT22;9071;48.220;14.480;2022-07-18T16:02:34;28.70;93.70
17891;DHT22;9071;48.220;14.480;2022-07-18T16:07:37;28.80;93.70
17891;DHT22;9071;48.220;14.480;2022-07-18T16:12:39;28.90;93.30
17891;DHT22;9071;48.220;14.480;2022-07-18T16:17:42;28.80;93.20
17891;DHT22;9071;48.220;14.480;2022-07-18T16:22:44;28.70;92.90
17891;DHT22;9071;48.220;14.480;2022-07-18T16:27:46;28.70;92.80
17891;DHT22;9071;48.220;14.480;2022-07-18T16:32:50;28.60;92.40
17891;DHT22;9071;48.220;14.480;2022-07-18T16:37:52;28.60;92.70
17891;DHT22;9071;48.220;14.480;2022-07-18T16:42:54;28.40;92.20
17891;DHT22;9071;48.220;14.480;2022-07-18T16:47:58;28.40;92.80
17891;DHT22;9071;48.220;14.480;2022-07-18T16:53:01;28.30;93.70
17891;DHT22;9071;48.220;14.480;2022-07-18T16:58:03;28.10;94.10
17891;DHT22;9071;48.220;14.480;2022-07-18T17:03:07;27.90;94.50
17891;DHT22;9071;48.220;14.480;2022-07-18T17:08:10;27.70;94.80
17891;DHT22;9071;48.220;14.480;2022-07-18T17:13:12;27.50;95.80
17891;DHT22;9071;48.220;14.480;2022-07-18T17:18:16;27.30;96.00
17891;DHT22;9071;48.220;14.480;2022-07-18T17:23:20;27.20;95.90
17891;DHT22;9071;48.220;14.480;2022-07-18T17:28:23;27.00;96.20
17891;DHT22;9071;48.220;14.480;2022-07-18T17:33:27;26.90;96.20
17891;DHT22;9071;48.220;14.480;2022-07-18T17:38:30;26.60;97.30
17891;DHT22;9071;48.220;14.480;2022-07-18T17:43:32;26.40;98.00
17891;DHT22;9071;48.220;14.480;2022-07-18T17:48:36;26.10;98.70
17891;DHT22;9071;48.220;14.480;2022-07-18T17:53:39;25.90;99.30
17891;DHT22;9071;48.220;14.480;2022-07-18T17:58:41;25.80;99.90
17891;DHT22;9071;48.220;14.480;2022-07-18T18:03:44;25.70;99.90
17891;DHT22;9071;48.220;14.480;2022-07-18T18:08:47;25.50;99.90
17891;DHT22;9071;48.220;14.480;2022-07-18T18:13:49;25.30;99.90
17891;DHT22;9071;48.220;14.480;2022-07-18T18:18:53;25.10;99.90
17891;DHT22;9071;48.220;14.480;2022-07-18T18:23:55;25.10;99.90
17891;DHT22;9071;48.220;14.480;2022-07-18T18:28:57;24.90;99.90
17891;DHT22;9071;48.220;14.480;2022-07-18T18:34:00;24.60;99.90
17891;DHT22;9071;48.220;14.480;2022-07-18T18:39:02;24.30;99.90
17891;DHT22;9071;48.220;14.480;2022-07-18T18:44:04;24.00;99.90
17891;DHT22;9071;48.220;14.480;2022-07-18T18:49:08;23.80;99.90
17891;DHT22;9071;48.220;14.480;2022-07-18T18:54:10;23.60;99.90
17891;DHT22;9071;48.220;14.480;2022-07-18T18:59:13;23.30;99.90
17891;DHT22;9071;48.220;14.480;2022-07-18T19:04:17;23.10;99.90
17891;DHT22;9071;48.220;14.480;2022-07-18T19:09:19;22.90;99.90
17891;DHT22;9071;48.220;14.480;2022-07-18T19:14:23;22.80;99.90
17891;DHT22;9071;48.220;14.480;2022-07-18T19:19:26;22.60;99.90
17891;DHT22;9071;48.220;14.480;2022-07-18T19:24:28;22.30;99.90
17891;DHT22;9071;48.220;14.480;2022-07-18T19:29:30;22.00;99.90
17891;DHT22;9071;48.220;14.480;2022-07-18T19:34:33;21.70;99.90
17891;DHT22;9071;48.220;14.480;2022-07-18T19:39:35;21.40;99.90
17891;DHT22;9071;48.220;14.480;2022-07-18T19:44:37;21.20;99.90
17891;DHT22;9071;48.220;14.480;2022-07-18T19:49:41;21.10;99.90
17891;DHT22;9071;48.220;14.480;2022-07-18T19:54:43;21.00;99.90
17891;DHT22;9071;48.220;14.480;2022-07-18T19:59:45;20.80;99.90
17891;DHT22;9071;48.220;14.480;2022-07-18T20:04:48;20.70;99.90
17891;DHT22;9071;48.220;14.480;2022-07-18T20:09:50;20.60;99.90
17891;DHT22;9071;48.220;14.480;2022-07-18T20:14:52;20.40;99.90
17891;DHT22;9071;48.220;14.480;2022-07-18T20:19:56;20.20;99.90
17891;DHT22;9071;48.220;14.480;2022-07-18T20:24:58;20.00;99.90
17891;DHT22;9071;48.220;14.480;2022-07-18T20:30:00;19.90;99.90
17891;DHT22;9071;48.220;14.480;2022-07-18T20:35:04;19.80;99.90
17891;DHT22;9071;48.220;14.480;2022-07-18T20:40:08;19.80;99.90
17891;DHT22;9071;48.220;14.480;2022-07-18T20:45:11;19.70;99.90
17891;DHT22;9071;48.220;14.480;2022-07-18T20:50:14;19.50;99.90
17891;DHT22;9071;48.220;14.480;2022-07-18T20:55:16;19.30;99.90
17891;DHT22;9071;48.220;14.480;2022-07-18T21:00:19;19.10;99.90
17891;DHT22;9071;48.220;14.480;2022-07-18T21:05:22;19.00;99.90
17891;DHT22;9071;48.220;14.480;2022-07-18T21:10:25;18.90;99.90
17891;DHT22;9071;48.220;14.480;2022-07-18T21:15:27;18.80;99.90
17891;DHT22;9071;48.220;14.480;2022-07-18T21:20:31;18.70;99.90
17891;DHT22;9071;48.220;14.480;2022-07-18T21:25:33;18.50;99.90
17891;DHT22;9071;48.220;14.480;2022-07-18T21:30:36;18.50;99.90
17891;DHT22;9071;48.220;14.480;2022-07-18T21:35:39;18.50;99.90
17891;DHT22;9071;48.220;14.480;2022-07-18T21:40:41;18.40;99.90
17891;DHT22;9071;48.220;14.480;2022-07-18T21:45:44;18.30;99.90
17891;DHT22;9071;48.220;14.480;2022-07-18T21:50:47;18.20;99.90
17891;DHT22;9071;48.220;14.480;2022-07-18T21:55:49;18.10;99.90
17891;DHT22;9071;48.220;14.480;2022-07-18T22:00:51;18.00;99.90
17891;DHT22;9071;48.220;14.480;2022-07-18T22:05:55;17.90;99.90
17891;DHT22;9071;48.220;14.480;2022-07-18T22:10:57;17.80;99.90
17891;DHT22;9071;48.220;14.480;2022-07-18T22:15:59;17.60;99.90
17891;DHT22;9071;48.220;14.480;2022-07-18T22:21:03;17.40;99.90
17891;DHT22;9071;48.220;14.480;2022-07-18T22:26:05;17.30;99.90
17891;DHT22;9071;48.220;14.480;2022-07-18T22:31:07;17.20;99.90
17891;DHT22;9071;48.220;14.480;2022-07-18T22:36:10;17.10;99.90
17891;DHT22;9071;48.220;14.480;2022-07-18T22:41:12;17.00;99.90
17891;DHT22;9071;48.220;14.480;2022-07-18T22:46:15;17.00;99.90
17891;DHT22;9071;48.220;14.480;2022-07-18T22:51:18;16.90;99.90
17891;DHT22;9071;48.220;14.480;2022-07-18T22:56:20;16.80;99.90
17891;DHT22;9071;48.220;14.480;2022-07-18T23:01:22;16.80;99.90
17891;DHT22;9071;48.220;14.480;2022-07-18T23:06:26;16.70;99.90
17891;DHT22;9071;48.220;14.480;2022-07-18T23:11:28;16.60;99.90
17891;DHT22;9071;48.220;14.480;2022-07-18T23:16:30;16.40;99.90
17891;DHT22;9071;48.220;14.480;2022-07-18T23:21:33;16.40;99.90
17891;DHT22;9071;48.220;14.480;2022-07-18T23:26:36;16.30;99.90
17891;DHT22;9071;48.220;14.480;2022-07-18T23:31:38;16.30;99.90
17891;DHT22;9071;48.220;14.480;2022-07-18T23:36:41;16.30;99.90
17891;DHT22;9071;48.220;14.480;2022-07-18T23:41:43;16.20;99.90
17891;DHT22;9071;48.220;14.480;2022-07-18T23:46:45;16.10;99.90
17891;DHT22;9071;48.220;14.480;2022-07-18T23:51:49;16.10;99.90
17891;DHT22;9071;48.220;14.480;2022-07-18T23:56:51;16.10;99.90
